Flight Track Log - Related Links

Times and Time Zones

All times are in EDT time to prevent confusion due to time zone crossing. See the VRT51 flight status page for this flight to view local times or setup timezone preferences in your user account.

Time Position Orientation Groundspeed Altitude Reporting Facility
EDT Latitude Longitude Course Direction KTS MPH feet Rate Location/Type
Wed 02:52:23 PM 34.6922 -92.2792 244° Southwest 207 238 2,500  Level Memphis Center
Wed 02:53:24 PM 34.6847 -92.3575 263° West 266 306 4,700 2,705 Climbing Memphis Center
Wed 02:54:25 PM 34.6789 -92.4583 266° West 289 333 8,000 5,136 Climbing Memphis Center
Wed 02:55:36 PM 34.7019 -92.5750 284° West 293 337 16,000 3,160 Climbing Memphis Center
Wed 02:56:36 PM 34.7311 -92.6869 288° West 320 368 14,900  Descending Memphis Center
Wed 02:57:37 PM 34.8153 -92.7628 324° Northwest 344 396 16,000 545 Climbing Memphis Center
Wed 02:58:37 PM 34.9056 -92.8361 326° Northwest 366 421 16,000  Level Memphis Center
Wed 02:59:36 PM 34.9958 -92.9122 325° Northwest 380 437 16,000  Level Memphis Center
Wed 03:00:37 PM 35.0881 -92.9911 325° Northwest 395 455 16,000 -50 Level Memphis Center
Wed 03:01:36 PM 35.1803 -93.0678 326° Northwest 400 460 15,900 -50 Descending Memphis Center
Wed 03:02:36 PM 35.2703 -93.1469 324° Northwest 400 460 15,900  Level Memphis Center
Wed 03:03:37 PM 35.3522 -93.2183 325° Northwest 400 460 15,900 50 Level Memphis Center
Wed 03:04:36 PM 35.4422 -93.2953 325° Northwest 400 460 16,000 50 Climbing Memphis Center
Wed 03:05:36 PM 35.5322 -93.3725 325° Northwest 400 460 16,000 -50 Level Memphis Center
Wed 03:06:36 PM 35.6239 -93.4525 325° Northwest 400 460 15,900  Descending Memphis Center
Wed 03:07:37 PM 35.7139 -93.5300 325° Northwest 400 460 16,000 -400 Climbing Memphis Center
Wed 03:08:36 PM 35.8122 -93.5928 333° Northwest 395 455 15,100 -1,000 Descending Memphis Center
Wed 03:09:37 PM 35.9089 -93.6503 334° Northwest 388 447 14,000 -1,091 Descending Memphis Center
Wed 03:10:37 PM 36.0011 -93.7078 333° Northwest 377 434 12,900 -1,150 Descending Memphis Center
Wed 03:11:37 PM 36.0933 -93.7631 334° Northwest 372 428 11,700 -1,400 Descending Memphis Center
Wed 03:12:37 PM 36.1753 -93.8203 331° Northwest 357 411 10,100 -1,950 Descending Memphis Center
Wed 03:13:37 PM 36.2492 -93.8594 337° Northwest 319 367 7,800 -2,420 Descending Memphis Center
Wed 03:14:36 PM 36.3147 -93.8983 334° Northwest 280 322 5,300 -1,400 Descending Memphis Center
Wed 03:15:37 PM 36.3806 -93.9322 337° Northwest 266 306 5,000 -298 Descending Memphis Center
Wed 03:16:37 PM 36.4247 -93.9908 313° West 246 283 4,700 -800 Descending Memphis Center
Wed 03:17:37 PM 36.4272 -94.0503 273° West 182 209 3,400 -1,000 Descending Memphis Center
Wed 03:18:37 PM 36.4194 -94.1014 259° West 169 194 2,700 -700 Descending Memphis Center
Wed 03:21:00 PM 36.3667 -94.1000 North  Level FlightAware Approximate

Login

Don't have an account? Register now (free) for customized features, flight alerts, and more!